sensor_id;sensor_type;location;lat;lon;timestamp;temperature;humidity
32097;DHT22;18610;49.916;8.284;2023-05-31T00:01:30;15.60;81.40
32097;DHT22;18610;49.916;8.284;2023-05-31T00:03:57;15.60;81.60
32097;DHT22;18610;49.916;8.284;2023-05-31T00:06:24;15.50;82.00
32097;DHT22;18610;49.916;8.284;2023-05-31T00:08:51;15.50;82.60
32097;DHT22;18610;49.916;8.284;2023-05-31T00:11:17;15.50;83.10
32097;DHT22;18610;49.916;8.284;2023-05-31T00:13:44;15.50;83.30
32097;DHT22;18610;49.916;8.284;2023-05-31T00:16:11;15.40;83.50
32097;DHT22;18610;49.916;8.284;2023-05-31T00:18:40;15.40;83.90
32097;DHT22;18610;49.916;8.284;2023-05-31T00:21:06;15.40;84.20
32097;DHT22;18610;49.916;8.284;2023-05-31T00:23:33;15.40;84.80
32097;DHT22;18610;49.916;8.284;2023-05-31T00:26:00;15.40;85.20
32097;DHT22;18610;49.916;8.284;2023-05-31T00:28:26;15.40;85.30
32097;DHT22;18610;49.916;8.284;2023-05-31T00:30:53;15.40;85.70
32097;DHT22;18610;49.916;8.284;2023-05-31T00:33:20;15.30;85.80
32097;DHT22;18610;49.916;8.284;2023-05-31T00:35:48;15.30;86.30
32097;DHT22;18610;49.916;8.284;2023-05-31T00:38:14;15.30;86.80
32097;DHT22;18610;49.916;8.284;2023-05-31T00:40:41;15.20;87.10
32097;DHT22;18610;49.916;8.284;2023-05-31T00:43:08;15.20;87.40
32097;DHT22;18610;49.916;8.284;2023-05-31T00:45:35;15.20;87.70
32097;DHT22;18610;49.916;8.284;2023-05-31T00:48:02;15.20;87.90
32097;DHT22;18610;49.916;8.284;2023-05-31T00:50:29;15.20;88.20
32097;DHT22;18610;49.916;8.284;2023-05-31T00:52:59;15.20;88.40
32097;DHT22;18610;49.916;8.284;2023-05-31T00:55:29;15.20;89.00
32097;DHT22;18610;49.916;8.284;2023-05-31T00:57:56;15.20;89.20
32097;DHT22;18610;49.916;8.284;2023-05-31T01:00:23;15.20;89.60
32097;DHT22;18610;49.916;8.284;2023-05-31T01:02:50;15.20;89.90
32097;DHT22;18610;49.916;8.284;2023-05-31T01:05:17;15.20;90.00
32097;DHT22;18610;49.916;8.284;2023-05-31T01:07:44;15.20;90.10
32097;DHT22;18610;49.916;8.284;2023-05-31T01:10:13;15.20;90.20
32097;DHT22;18610;49.916;8.284;2023-05-31T01:12:50;15.10;90.40
32097;DHT22;18610;49.916;8.284;2023-05-31T01:15:22;15.10;90.60
32097;DHT22;18610;49.916;8.284;2023-05-31T01:17:53;15.10;90.70
32097;DHT22;18610;49.916;8.284;2023-05-31T01:20:27;15.00;90.80
32097;DHT22;18610;49.916;8.284;2023-05-31T01:23:25;15.00;91.10
32097;DHT22;18610;49.916;8.284;2023-05-31T01:26:18;14.90;91.30
32097;DHT22;18610;49.916;8.284;2023-05-31T01:28:50;15.00;91.50
32097;DHT22;18610;49.916;8.284;2023-05-31T01:31:19;15.00;91.70
32097;DHT22;18610;49.916;8.284;2023-05-31T01:33:47;14.90;91.80
32097;DHT22;18610;49.916;8.284;2023-05-31T01:36:15;14.90;92.10
32097;DHT22;18610;49.916;8.284;2023-05-31T01:38:41;14.90;92.30
32097;DHT22;18610;49.916;8.284;2023-05-31T01:41:09;14.90;92.60
32097;DHT22;18610;49.916;8.284;2023-05-31T01:43:41;14.90;92.70
32097;DHT22;18610;49.916;8.284;2023-05-31T01:46:10;14.90;92.80
32097;DHT22;18610;49.916;8.284;2023-05-31T01:48:37;14.90;93.00
32097;DHT22;18610;49.916;8.284;2023-05-31T01:51:06;14.90;93.20
32097;DHT22;18610;49.916;8.284;2023-05-31T01:53:34;14.90;93.50
32097;DHT22;18610;49.916;8.284;2023-05-31T01:56:01;14.80;93.70
32097;DHT22;18610;49.916;8.284;2023-05-31T01:58:29;14.80;93.90
32097;DHT22;18610;49.916;8.284;2023-05-31T02:00:58;14.70;94.30
32097;DHT22;18610;49.916;8.284;2023-05-31T02:03:25;14.70;94.40
32097;DHT22;18610;49.916;8.284;2023-05-31T02:05:55;14.70;94.60
32097;DHT22;18610;49.916;8.284;2023-05-31T02:08:23;14.70;95.00
32097;DHT22;18610;49.916;8.284;2023-05-31T02:10:50;14.60;95.30
32097;DHT22;18610;49.916;8.284;2023-05-31T02:13:17;14.60;95.40
32097;DHT22;18610;49.916;8.284;2023-05-31T02:15:44;14.60;95.70
32097;DHT22;18610;49.916;8.284;2023-05-31T02:18:12;14.50;95.90
32097;DHT22;18610;49.916;8.284;2023-05-31T02:20:42;14.50;96.20
32097;DHT22;18610;49.916;8.284;2023-05-31T02:23:09;14.50;96.40
32097;DHT22;18610;49.916;8.284;2023-05-31T02:25:36;14.50;96.60
32097;DHT22;18610;49.916;8.284;2023-05-31T02:28:02;14.50;96.90
32097;DHT22;18610;49.916;8.284;2023-05-31T02:30:30;14.40;97.20
32097;DHT22;18610;49.916;8.284;2023-05-31T02:32:57;14.40;97.70
32097;DHT22;18610;49.916;8.284;2023-05-31T02:35:26;14.30;97.90
32097;DHT22;18610;49.916;8.284;2023-05-31T02:37:53;14.30;98.10
32097;DHT22;18610;49.916;8.284;2023-05-31T02:40:20;14.30;98.50
32097;DHT22;18610;49.916;8.284;2023-05-31T02:42:47;14.30;98.70
32097;DHT22;18610;49.916;8.284;2023-05-31T02:45:15;14.20;98.90
32097;DHT22;18610;49.916;8.284;2023-05-31T02:47:41;14.30;99.20
32097;DHT22;18610;49.916;8.284;2023-05-31T02:50:09;14.20;99.30
32097;DHT22;18610;49.916;8.284;2023-05-31T02:52:37;14.20;99.60
32097;DHT22;18610;49.916;8.284;2023-05-31T02:55:04;14.20;99.90
32097;DHT22;18610;49.916;8.284;2023-05-31T02:57:31;14.20;99.90
32097;DHT22;18610;49.916;8.284;2023-05-31T03:00:00;14.10;99.90
32097;DHT22;18610;49.916;8.284;2023-05-31T03:02:34;14.10;99.90
32097;DHT22;18610;49.916;8.284;2023-05-31T03:05:00;14.10;99.90
32097;DHT22;18610;49.916;8.284;2023-05-31T03:07:27;14.10;99.90
32097;DHT22;18610;49.916;8.284;2023-05-31T03:09:56;14.00;99.90
32097;DHT22;18610;49.916;8.284;2023-05-31T03:12:22;14.00;99.90
32097;DHT22;18610;49.916;8.284;2023-05-31T03:14:49;13.90;99.90
32097;DHT22;18610;49.916;8.284;2023-05-31T03:17:16;13.90;99.90
32097;DHT22;18610;49.916;8.284;2023-05-31T03:19:42;13.90;99.90
32097;DHT22;18610;49.916;8.284;2023-05-31T03:22:09;13.90;99.90
32097;DHT22;18610;49.916;8.284;2023-05-31T03:24:36;13.80;99.90
32097;DHT22;18610;49.916;8.284;2023-05-31T03:27:04;13.80;99.90
32097;DHT22;18610;49.916;8.284;2023-05-31T03:29:32;13.90;99.90
32097;DHT22;18610;49.916;8.284;2023-05-31T03:31:59;13.90;99.90
32097;DHT22;18610;49.916;8.284;2023-05-31T03:34:25;13.80;99.90
32097;DHT22;18610;49.916;8.284;2023-05-31T03:36:52;13.90;99.90
32097;DHT22;18610;49.916;8.284;2023-05-31T03:39:19;13.90;99.90
32097;DHT22;18610;49.916;8.284;2023-05-31T03:41:46;13.90;99.90
32097;DHT22;18610;49.916;8.284;2023-05-31T03:44:14;13.90;99.90
32097;DHT22;18610;49.916;8.284;2023-05-31T03:46:40;13.80;99.90
32097;DHT22;18610;49.916;8.284;2023-05-31T03:49:07;13.90;99.90
32097;DHT22;18610;49.916;8.284;2023-05-31T03:51:34;13.90;99.90
32097;DHT22;18610;49.916;8.284;2023-05-31T03:54:01;13.90;99.90
32097;DHT22;18610;49.916;8.284;2023-05-31T03:56:27;14.00;99.90
32097;DHT22;18610;49.916;8.284;2023-05-31T03:58:54;14.00;99.90
32097;DHT22;18610;49.916;8.284;2023-05-31T04:01:22;14.00;99.90
32097;DHT22;18610;49.916;8.284;2023-05-31T04:03:49;14.00;99.90
32097;DHT22;18610;49.916;8.284;2023-05-31T04:06:15;14.10;99.90
32097;DHT22;18610;49.916;8.284;2023-05-31T04:08:42;14.10;99.90
32097;DHT22;18610;49.916;8.284;2023-05-31T04:11:09;14.10;99.90
32097;DHT22;18610;49.916;8.284;2023-05-31T04:13:36;14.20;99.90
32097;DHT22;18610;49.916;8.284;2023-05-31T04:16:02;14.20;99.90
32097;DHT22;18610;49.916;8.284;2023-05-31T04:18:30;14.20;99.90
32097;DHT22;18610;49.916;8.284;2023-05-31T04:20:57;14.30;99.90
32097;DHT22;18610;49.916;8.284;2023-05-31T04:23:24;14.30;99.90
32097;DHT22;18610;49.916;8.284;2023-05-31T04:25:51;14.40;99.90
32097;DHT22;18610;49.916;8.284;2023-05-31T04:28:17;14.40;99.90
32097;DHT22;18610;49.916;8.284;2023-05-31T04:30:45;14.50;99.90
32097;DHT22;18610;49.916;8.284;2023-05-31T04:33:11;14.60;99.90
32097;DHT22;18610;49.916;8.284;2023-05-31T04:35:40;14.60;99.90
32097;DHT22;18610;49.916;8.284;2023-05-31T04:38:08;14.70;99.90
32097;DHT22;18610;49.916;8.284;2023-05-31T04:40:35;14.70;99.90
32097;DHT22;18610;49.916;8.284;2023-05-31T04:43:02;14.80;99.90
32097;DHT22;18610;49.916;8.284;2023-05-31T04:45:29;14.90;99.90
32097;DHT22;18610;49.916;8.284;2023-05-31T04:47:56;14.90;99.90
32097;DHT22;18610;49.916;8.284;2023-05-31T04:50:23;15.00;99.90
32097;DHT22;18610;49.916;8.284;2023-05-31T04:52:51;15.10;99.90
32097;DHT22;18610;49.916;8.284;2023-05-31T04:55:18;15.20;99.90
32097;DHT22;18610;49.916;8.284;2023-05-31T04:57:45;15.20;99.90
32097;DHT22;18610;49.916;8.284;2023-05-31T05:00:12;15.30;99.90
32097;DHT22;18610;49.916;8.284;2023-05-31T05:02:41;15.40;99.90
32097;DHT22;18610;49.916;8.284;2023-05-31T05:05:08;15.50;99.90
32097;DHT22;18610;49.916;8.284;2023-05-31T05:07:35;15.50;99.90
32097;DHT22;18610;49.916;8.284;2023-05-31T05:10:04;15.60;99.90
32097;DHT22;18610;49.916;8.284;2023-05-31T05:12:30;15.70;99.90
32097;DHT22;18610;49.916;8.284;2023-05-31T05:14:57;15.80;99.90
32097;DHT22;18610;49.916;8.284;2023-05-31T05:17:24;15.80;99.90
32097;DHT22;18610;49.916;8.284;2023-05-31T05:19:51;16.00;99.90
32097;DHT22;18610;49.916;8.284;2023-05-31T05:22:17;16.00;99.70
32097;DHT22;18610;49.916;8.284;2023-05-31T05:24:44;16.10;99.60
32097;DHT22;18610;49.916;8.284;2023-05-31T05:27:12;16.10;99.10
32097;DHT22;18610;49.916;8.284;2023-05-31T05:29:39;16.20;98.70
32097;DHT22;18610;49.916;8.284;2023-05-31T05:32:06;16.30;98.60
32097;DHT22;18610;49.916;8.284;2023-05-31T05:34:33;16.40;98.60
32097;DHT22;18610;49.916;8.284;2023-05-31T05:37:00;16.50;98.30
32097;DHT22;18610;49.916;8.284;2023-05-31T05:39:27;16.60;98.00
32097;DHT22;18610;49.916;8.284;2023-05-31T05:41:54;16.70;97.70
32097;DHT22;18610;49.916;8.284;2023-05-31T05:44:22;16.80;97.40
32097;DHT22;18610;49.916;8.284;2023-05-31T05:46:49;16.90;97.10
32097;DHT22;18610;49.916;8.284;2023-05-31T05:49:16;17.00;97.00
32097;DHT22;18610;49.916;8.284;2023-05-31T05:51:42;17.00;96.70
32097;DHT22;18610;49.916;8.284;2023-05-31T05:54:09;17.10;96.60
32097;DHT22;18610;49.916;8.284;2023-05-31T05:56:36;17.30;96.50
32097;DHT22;18610;49.916;8.284;2023-05-31T05:59:03;17.30;96.50
32097;DHT22;18610;49.916;8.284;2023-05-31T06:01:31;17.40;95.90
32097;DHT22;18610;49.916;8.284;2023-05-31T06:03:58;17.50;95.40
32097;DHT22;18610;49.916;8.284;2023-05-31T06:06:25;17.60;95.40
32097;DHT22;18610;49.916;8.284;2023-05-31T06:08:52;17.70;95.40
32097;DHT22;18610;49.916;8.284;2023-05-31T06:11:19;17.80;94.80
32097;DHT22;18610;49.916;8.284;2023-05-31T06:13:46;17.90;94.80
32097;DHT22;18610;49.916;8.284;2023-05-31T06:16:13;18.10;94.90
32097;DHT22;18610;49.916;8.284;2023-05-31T06:18:41;18.20;94.60
32097;DHT22;18610;49.916;8.284;2023-05-31T06:21:08;18.40;94.00
32097;DHT22;18610;49.916;8.284;2023-05-31T06:23:35;18.40;93.10
32097;DHT22;18610;49.916;8.284;2023-05-31T06:26:02;18.50;92.10
32097;DHT22;18610;49.916;8.284;2023-05-31T06:28:28;18.60;92.10
32097;DHT22;18610;49.916;8.284;2023-05-31T06:30:55;18.70;92.10
32097;DHT22;18610;49.916;8.284;2023-05-31T06:33:22;18.80;91.70
32097;DHT22;18610;49.916;8.284;2023-05-31T06:35:51;18.80;91.40
32097;DHT22;18610;49.916;8.284;2023-05-31T06:38:18;18.90;91.10
32097;DHT22;18610;49.916;8.284;2023-05-31T06:40:47;18.90;90.70
32097;DHT22;18610;49.916;8.284;2023-05-31T06:43:14;19.10;90.80
32097;DHT22;18610;49.916;8.284;2023-05-31T06:45:41;19.10;90.70
32097;DHT22;18610;49.916;8.284;2023-05-31T06:48:08;19.20;90.30
32097;DHT22;18610;49.916;8.284;2023-05-31T06:50:35;19.40;89.40
32097;DHT22;18610;49.916;8.284;2023-05-31T06:53:03;19.50;88.50
32097;DHT22;18610;49.916;8.284;2023-05-31T06:55:30;19.50;87.90
32097;DHT22;18610;49.916;8.284;2023-05-31T06:57:57;19.60;86.70
32097;DHT22;18610;49.916;8.284;2023-05-31T07:00:24;19.70;87.00
32097;DHT22;18610;49.916;8.284;2023-05-31T07:02:51;19.80;85.60
32097;DHT22;18610;49.916;8.284;2023-05-31T07:05:18;19.90;85.00
32097;DHT22;18610;49.916;8.284;2023-05-31T07:07:45;20.00;84.70
32097;DHT22;18610;49.916;8.284;2023-05-31T07:10:13;20.20;83.90
32097;DHT22;18610;49.916;8.284;2023-05-31T07:12:41;20.20;83.30
32097;DHT22;18610;49.916;8.284;2023-05-31T07:15:08;20.30;82.90
32097;DHT22;18610;49.916;8.284;2023-05-31T07:17:35;20.50;82.40
32097;DHT22;18610;49.916;8.284;2023-05-31T07:20:02;20.50;80.60
32097;DHT22;18610;49.916;8.284;2023-05-31T07:22:30;20.60;81.10
32097;DHT22;18610;49.916;8.284;2023-05-31T07:24:57;20.70;79.80
32097;DHT22;18610;49.916;8.284;2023-05-31T07:27:25;20.80;78.60
32097;DHT22;18610;49.916;8.284;2023-05-31T07:29:52;20.90;78.20
32097;DHT22;18610;49.916;8.284;2023-05-31T07:32:19;21.00;76.80
32097;DHT22;18610;49.916;8.284;2023-05-31T07:34:46;21.00;75.10
32097;DHT22;18610;49.916;8.284;2023-05-31T07:37:12;21.10;73.30
32097;DHT22;18610;49.916;8.284;2023-05-31T07:39:40;21.20;74.10
32097;DHT22;18610;49.916;8.284;2023-05-31T07:42:07;21.20;73.60
32097;DHT22;18610;49.916;8.284;2023-05-31T07:44:35;21.40;72.40
32097;DHT22;18610;49.916;8.284;2023-05-31T07:47:02;21.40;71.10
32097;DHT22;18610;49.916;8.284;2023-05-31T07:49:30;21.50;70.60
32097;DHT22;18610;49.916;8.284;2023-05-31T07:51:56;21.60;68.50
32097;DHT22;18610;49.916;8.284;2023-05-31T07:54:23;21.70;69.20
32097;DHT22;18610;49.916;8.284;2023-05-31T07:56:50;21.70;65.40
32097;DHT22;18610;49.916;8.284;2023-05-31T07:59:17;21.80;67.90
32097;DHT22;18610;49.916;8.284;2023-05-31T08:01:46;21.80;64.50
32097;DHT22;18610;49.916;8.284;2023-05-31T08:04:13;21.80;64.40
32097;DHT22;18610;49.916;8.284;2023-05-31T08:06:41;21.90;63.80
32097;DHT22;18610;49.916;8.284;2023-05-31T08:09:08;21.90;64.50
32097;DHT22;18610;49.916;8.284;2023-05-31T08:11:35;22.00;62.90
32097;DHT22;18610;49.916;8.284;2023-05-31T08:14:03;22.10;62.30
32097;DHT22;18610;49.916;8.284;2023-05-31T08:16:30;22.20;62.60
32097;DHT22;18610;49.916;8.284;2023-05-31T08:18:59;22.30;61.50
32097;DHT22;18610;49.916;8.284;2023-05-31T08:21:26;22.40;60.60
32097;DHT22;18610;49.916;8.284;2023-05-31T08:23:53;22.40;60.00
32097;DHT22;18610;49.916;8.284;2023-05-31T08:26:20;22.50;60.50
32097;DHT22;18610;49.916;8.284;2023-05-31T08:28:48;22.60;59.80
32097;DHT22;18610;49.916;8.284;2023-05-31T08:31:15;22.80;58.90
32097;DHT22;18610;49.916;8.284;2023-05-31T08:33:52;22.90;59.40
32097;DHT22;18610;49.916;8.284;2023-05-31T08:36:21;23.10;60.00
32097;DHT22;18610;49.916;8.284;2023-05-31T08:38:48;23.30;57.50
32097;DHT22;18610;49.916;8.284;2023-05-31T08:41:15;23.40;57.10
32097;DHT22;18610;49.916;8.284;2023-05-31T08:43:44;23.40;57.30
32097;DHT22;18610;49.916;8.284;2023-05-31T08:46:11;23.60;57.30
32097;DHT22;18610;49.916;8.284;2023-05-31T08:48:43;23.60;57.20
32097;DHT22;18610;49.916;8.284;2023-05-31T08:51:12;23.70;57.00
32097;DHT22;18610;49.916;8.284;2023-05-31T08:53:41;23.70;56.50
32097;DHT22;18610;49.916;8.284;2023-05-31T08:56:10;23.90;56.60
32097;DHT22;18610;49.916;8.284;2023-05-31T08:58:38;24.00;56.40
32097;DHT22;18610;49.916;8.284;2023-05-31T09:01:06;24.20;56.40
32097;DHT22;18610;49.916;8.284;2023-05-31T09:03:33;24.30;56.30
32097;DHT22;18610;49.916;8.284;2023-05-31T09:06:00;24.40;54.90
32097;DHT22;18610;49.916;8.284;2023-05-31T09:08:27;24.60;54.60
32097;DHT22;18610;49.916;8.284;2023-05-31T09:11:00;24.70;54.90
32097;DHT22;18610;49.916;8.284;2023-05-31T09:13:27;24.80;54.50
32097;DHT22;18610;49.916;8.284;2023-05-31T09:15:54;24.80;52.90
32097;DHT22;18610;49.916;8.284;2023-05-31T09:18:22;24.80;53.40
32097;DHT22;18610;49.916;8.284;2023-05-31T09:20:51;24.90;53.10
32097;DHT22;18610;49.916;8.284;2023-05-31T09:23:21;25.00;52.60
32097;DHT22;18610;49.916;8.284;2023-05-31T09:25:49;25.10;52.30
32097;DHT22;18610;49.916;8.284;2023-05-31T09:28:18;25.20;52.30
32097;DHT22;18610;49.916;8.284;2023-05-31T09:30:45;25.30;52.50
32097;DHT22;18610;49.916;8.284;2023-05-31T09:33:13;25.40;52.40
32097;DHT22;18610;49.916;8.284;2023-05-31T09:35:55;25.50;51.60
32097;DHT22;18610;49.916;8.284;2023-05-31T09:38:30;25.70;52.30
32097;DHT22;18610;49.916;8.284;2023-05-31T09:41:11;25.80;52.80
32097;DHT22;18610;49.916;8.284;2023-05-31T09:43:40;26.00;51.30
32097;DHT22;18610;49.916;8.284;2023-05-31T09:46:11;26.10;50.70
32097;DHT22;18610;49.916;8.284;2023-05-31T09:48:38;26.20;50.10
32097;DHT22;18610;49.916;8.284;2023-05-31T09:51:06;26.20;49.30
32097;DHT22;18610;49.916;8.284;2023-05-31T09:53:37;26.40;48.30
32097;DHT22;18610;49.916;8.284;2023-05-31T09:56:08;26.50;48.20
32097;DHT22;18610;49.916;8.284;2023-05-31T09:58:35;26.70;46.90
32097;DHT22;18610;49.916;8.284;2023-05-31T10:01:03;26.70;46.70
32097;DHT22;18610;49.916;8.284;2023-05-31T10:03:32;26.90;46.50
32097;DHT22;18610;49.916;8.284;2023-05-31T10:06:00;26.90;44.90
32097;DHT22;18610;49.916;8.284;2023-05-31T10:08:26;27.00;45.50
32097;DHT22;18610;49.916;8.284;2023-05-31T10:10:54;27.00;44.60
32097;DHT22;18610;49.916;8.284;2023-05-31T10:13:24;27.10;44.80
32097;DHT22;18610;49.916;8.284;2023-05-31T10:15:54;27.10;43.90
32097;DHT22;18610;49.916;8.284;2023-05-31T10:18:27;27.20;45.10
32097;DHT22;18610;49.916;8.284;2023-05-31T10:20:59;27.30;43.10
32097;DHT22;18610;49.916;8.284;2023-05-31T10:23:26;27.40;40.50
32097;DHT22;18610;49.916;8.284;2023-05-31T10:26:00;27.40;41.30
32097;DHT22;18610;49.916;8.284;2023-05-31T10:28:36;27.60;41.80
32097;DHT22;18610;49.916;8.284;2023-05-31T10:31:03;27.70;40.70
32097;DHT22;18610;49.916;8.284;2023-05-31T10:33:32;27.70;40.30
32097;DHT22;18610;49.916;8.284;2023-05-31T10:35:59;27.80;41.10
32097;DHT22;18610;49.916;8.284;2023-05-31T10:38:30;27.80;41.70
32097;DHT22;18610;49.916;8.284;2023-05-31T10:41:03;27.80;41.70
32097;DHT22;18610;49.916;8.284;2023-05-31T10:43:36;28.00;43.00
32097;DHT22;18610;49.916;8.284;2023-05-31T10:46:08;28.20;43.00
32097;DHT22;18610;49.916;8.284;2023-05-31T10:48:45;28.20;41.10
32097;DHT22;18610;49.916;8.284;2023-05-31T10:51:15;28.30;40.50
32097;DHT22;18610;49.916;8.284;2023-05-31T10:53:44;28.40;40.40
32097;DHT22;18610;49.916;8.284;2023-05-31T10:56:12;28.50;39.90
32097;DHT22;18610;49.916;8.284;2023-05-31T10:58:41;28.70;39.40
32097;DHT22;18610;49.916;8.284;2023-05-31T11:01:10;28.70;39.30
32097;DHT22;18610;49.916;8.284;2023-05-31T11:03:45;28.90;37.70
32097;DHT22;18610;49.916;8.284;2023-05-31T11:06:14;28.90;38.50
32097;DHT22;18610;49.916;8.284;2023-05-31T11:08:56;28.90;38.60
32097;DHT22;18610;49.916;8.284;2023-05-31T11:11:28;28.80;37.30
32097;DHT22;18610;49.916;8.284;2023-05-31T11:13:55;28.70;38.30
32097;DHT22;18610;49.916;8.284;2023-05-31T11:16:22;28.80;38.90
32097;DHT22;18610;49.916;8.284;2023-05-31T11:19:01;28.90;39.50
32097;DHT22;18610;49.916;8.284;2023-05-31T11:21:48;29.00;40.50
32097;DHT22;18610;49.916;8.284;2023-05-31T11:24:26;29.20;39.80
32097;DHT22;18610;49.916;8.284;2023-05-31T11:26:53;29.40;39.80
32097;DHT22;18610;49.916;8.284;2023-05-31T11:29:20;29.40;38.40
32097;DHT22;18610;49.916;8.284;2023-05-31T11:32:00;29.30;39.40
32097;DHT22;18610;49.916;8.284;2023-05-31T11:34:30;29.30;39.10
32097;DHT22;18610;49.916;8.284;2023-05-31T11:36:59;29.20;37.90
32097;DHT22;18610;49.916;8.284;2023-05-31T11:39:26;29.30;37.60
32097;DHT22;18610;49.916;8.284;2023-05-31T11:41:54;29.50;39.50
32097;DHT22;18610;49.916;8.284;2023-05-31T11:44:27;29.50;37.80
32097;DHT22;18610;49.916;8.284;2023-05-31T11:46:59;29.50;37.80
32097;DHT22;18610;49.916;8.284;2023-05-31T11:49:31;29.60;38.30
32097;DHT22;18610;49.916;8.284;2023-05-31T11:51:59;29.70;38.40
32097;DHT22;18610;49.916;8.284;2023-05-31T11:54:27;29.90;37.70
32097;DHT22;18610;49.916;8.284;2023-05-31T11:57:02;29.80;37.20
32097;DHT22;18610;49.916;8.284;2023-05-31T11:59:30;29.80;37.00
32097;DHT22;18610;49.916;8.284;2023-05-31T12:01:59;29.90;37.80
32097;DHT22;18610;49.916;8.284;2023-05-31T12:04:29;30.10;37.30
32097;DHT22;18610;49.916;8.284;2023-05-31T12:06:57;30.30;37.00
32097;DHT22;18610;49.916;8.284;2023-05-31T12:09:24;30.50;37.20
32097;DHT22;18610;49.916;8.284;2023-05-31T12:11:51;30.70;36.80
32097;DHT22;18610;49.916;8.284;2023-05-31T12:14:18;30.80;36.60
32097;DHT22;18610;49.916;8.284;2023-05-31T12:16:46;31.00;36.90
32097;DHT22;18610;49.916;8.284;2023-05-31T12:19:15;31.10;37.20
32097;DHT22;18610;49.916;8.284;2023-05-31T12:21:41;31.20;35.80
32097;DHT22;18610;49.916;8.284;2023-05-31T12:24:12;31.10;35.40
32097;DHT22;18610;49.916;8.284;2023-05-31T12:26:40;31.00;35.20
32097;DHT22;18610;49.916;8.284;2023-05-31T12:29:08;30.90;35.40
32097;DHT22;18610;49.916;8.284;2023-05-31T12:31:36;31.00;35.30
32097;DHT22;18610;49.916;8.284;2023-05-31T12:34:08;30.90;34.80
32097;DHT22;18610;49.916;8.284;2023-05-31T12:36:41;30.90;34.60
32097;DHT22;18610;49.916;8.284;2023-05-31T12:39:09;31.00;35.80
32097;DHT22;18610;49.916;8.284;2023-05-31T12:41:38;31.00;35.10
32097;DHT22;18610;49.916;8.284;2023-05-31T12:44:07;30.90;35.80
32097;DHT22;18610;49.916;8.284;2023-05-31T12:46:38;31.00;35.40
32097;DHT22;18610;49.916;8.284;2023-05-31T12:49:13;31.00;35.70
32097;DHT22;18610;49.916;8.284;2023-05-31T12:51:40;31.10;36.60
32097;DHT22;18610;49.916;8.284;2023-05-31T12:54:10;31.30;37.50
32097;DHT22;18610;49.916;8.284;2023-05-31T12:56:39;31.40;36.30
32097;DHT22;18610;49.916;8.284;2023-05-31T12:59:06;31.40;35.50
32097;DHT22;18610;49.916;8.284;2023-05-31T13:01:34;31.40;35.10
32097;DHT22;18610;49.916;8.284;2023-05-31T13:04:01;31.40;34.70
32097;DHT22;18610;49.916;8.284;2023-05-31T13:06:27;31.40;34.30
32097;DHT22;18610;49.916;8.284;2023-05-31T13:08:54;31.30;35.00
32097;DHT22;18610;49.916;8.284;2023-05-31T13:11:21;31.30;34.70
32097;DHT22;18610;49.916;8.284;2023-05-31T13:13:49;31.40;34.90
32097;DHT22;18610;49.916;8.284;2023-05-31T13:16:15;31.30;34.60
32097;DHT22;18610;49.916;8.284;2023-05-31T13:18:42;31.30;34.80
32097;DHT22;18610;49.916;8.284;2023-05-31T13:21:09;31.30;34.60
32097;DHT22;18610;49.916;8.284;2023-05-31T13:23:36;31.30;35.30
32097;DHT22;18610;49.916;8.284;2023-05-31T13:26:03;31.30;35.00
32097;DHT22;18610;49.916;8.284;2023-05-31T13:28:29;31.30;35.30
32097;DHT22;18610;49.916;8.284;2023-05-31T13:30:57;31.40;35.80
32097;DHT22;18610;49.916;8.284;2023-05-31T13:33:24;31.40;35.40
32097;DHT22;18610;49.916;8.284;2023-05-31T13:35:54;31.40;35.10
32097;DHT22;18610;49.916;8.284;2023-05-31T13:38:21;31.30;36.10
32097;DHT22;18610;49.916;8.284;2023-05-31T13:40:49;31.20;35.30
32097;DHT22;18610;49.916;8.284;2023-05-31T13:43:17;31.00;35.40
32097;DHT22;18610;49.916;8.284;2023-05-31T13:45:44;30.90;36.30
32097;DHT22;18610;49.916;8.284;2023-05-31T13:48:12;30.80;35.40
32097;DHT22;18610;49.916;8.284;2023-05-31T13:50:39;30.80;34.80
32097;DHT22;18610;49.916;8.284;2023-05-31T13:53:06;30.80;34.70
32097;DHT22;18610;49.916;8.284;2023-05-31T13:55:34;30.60;35.10
32097;DHT22;18610;49.916;8.284;2023-05-31T13:58:01;30.60;35.10
32097;DHT22;18610;49.916;8.284;2023-05-31T14:00:28;30.60;35.40
32097;DHT22;18610;49.916;8.284;2023-05-31T14:02:55;30.60;35.40
32097;DHT22;18610;49.916;8.284;2023-05-31T14:05:23;30.60;35.90
32097;DHT22;18610;49.916;8.284;2023-05-31T14:07:51;30.60;36.40
32097;DHT22;18610;49.916;8.284;2023-05-31T14:10:18;30.60;36.90
32097;DHT22;18610;49.916;8.284;2023-05-31T14:12:45;30.70;37.00
32097;DHT22;18610;49.916;8.284;2023-05-31T14:15:12;30.70;37.00
32097;DHT22;18610;49.916;8.284;2023-05-31T14:17:39;30.70;36.80
32097;DHT22;18610;49.916;8.284;2023-05-31T14:20:06;30.60;37.30
32097;DHT22;18610;49.916;8.284;2023-05-31T14:22:35;30.60;36.80
32097;DHT22;18610;49.916;8.284;2023-05-31T14:25:02;30.60;37.00
32097;DHT22;18610;49.916;8.284;2023-05-31T14:27:29;30.60;36.70
32097;DHT22;18610;49.916;8.284;2023-05-31T14:29:55;30.60;36.20
32097;DHT22;18610;49.916;8.284;2023-05-31T14:32:22;30.60;36.70
32097;DHT22;18610;49.916;8.284;2023-05-31T14:34:49;30.60;36.70
32097;DHT22;18610;49.916;8.284;2023-05-31T14:37:16;30.70;37.90
32097;DHT22;18610;49.916;8.284;2023-05-31T14:39:44;30.60;37.40
32097;DHT22;18610;49.916;8.284;2023-05-31T14:42:10;30.60;37.70
32097;DHT22;18610;49.916;8.284;2023-05-31T14:44:37;30.50;38.20
32097;DHT22;18610;49.916;8.284;2023-05-31T14:47:04;30.60;38.90
32097;DHT22;18610;49.916;8.284;2023-05-31T14:49:31;30.60;39.00
32097;DHT22;18610;49.916;8.284;2023-05-31T14:51:59;30.60;39.60
32097;DHT22;18610;49.916;8.284;2023-05-31T14:54:26;30.50;39.30
32097;DHT22;18610;49.916;8.284;2023-05-31T14:56:54;30.60;39.50
32097;DHT22;18610;49.916;8.284;2023-05-31T14:59:20;30.60;39.90
32097;DHT22;18610;49.916;8.284;2023-05-31T15:01:48;30.60;39.90
32097;DHT22;18610;49.916;8.284;2023-05-31T15:04:15;30.60;38.50
32097;DHT22;18610;49.916;8.284;2023-05-31T15:06:42;30.40;37.50
32097;DHT22;18610;49.916;8.284;2023-05-31T15:09:09;30.40;38.60
32097;DHT22;18610;49.916;8.284;2023-05-31T15:11:37;30.20;39.00
32097;DHT22;18610;49.916;8.284;2023-05-31T15:14:05;30.30;39.90
32097;DHT22;18610;49.916;8.284;2023-05-31T15:16:32;30.20;39.60
32097;DHT22;18610;49.916;8.284;2023-05-31T15:19:00;30.10;40.10
32097;DHT22;18610;49.916;8.284;2023-05-31T15:21:26;30.00;40.00
32097;DHT22;18610;49.916;8.284;2023-05-31T15:23:53;30.00;40.20
32097;DHT22;18610;49.916;8.284;2023-05-31T15:26:20;29.80;40.60
32097;DHT22;18610;49.916;8.284;2023-05-31T15:28:48;29.90;40.80
32097;DHT22;18610;49.916;8.284;2023-05-31T15:31:16;29.80;40.80
32097;DHT22;18610;49.916;8.284;2023-05-31T15:33:43;29.80;41.10
32097;DHT22;18610;49.916;8.284;2023-05-31T15:36:09;29.80;40.20